Time;durP1;ratioP1;P1;durP2;ratioP2;P2;SDS_P1;SDS_P2;PMS_P1;PMS_P2;Temp;Humidity;BMP_temperature;BMP_pressure;BME280_temperature;BME280_humidity;BME280_pressure;Samples;Min_cycle;Max_cycle;Signal;HPM_P1;HPM_P2
2024/03/30 00:00:58;;;;;;;8.60;2.20;;;8.10;99.90;;;;;;5072638;28;20048;-62
2024/03/30 00:03:24;;;;;;;9.93;1.95;;;8.10;99.90;;;;;;5072534;28;20109;-62
2024/03/30 00:05:50;;;;;;;9.70;1.65;;;8.10;99.90;;;;;;5072704;28;20052;-62
2024/03/30 00:08:16;;;;;;;9.93;1.92;;;8.10;99.90;;;;;;5072564;28;20037;-62
2024/03/30 00:10:41;;;;;;;8.57;2.00;;;8.10;99.90;;;;;;5072640;28;20032;-62
2024/03/30 00:13:07;;;;;;;9.13;1.80;;;8.10;99.90;;;;;;5072758;28;20461;-63
2024/03/30 00:15:33;;;;;;;11.73;1.75;;;8.10;99.90;;;;;;5072664;28;20033;-62
2024/03/30 00:17:59;;;;;;;8.68;1.73;;;8.10;99.90;;;;;;5071839;28;20545;-62
2024/03/30 00:20:25;;;;;;;8.52;1.48;;;8.10;99.90;;;;;;5053293;28;20121;-62
2024/03/30 00:22:50;;;;;;;11.10;2.10;;;8.10;99.90;;;;;;5041685;28;20041;-63
2024/03/30 00:25:16;;;;;;;5.90;1.45;;;8.10;99.90;;;;;;5049647;28;20048;-62
2024/03/30 00:27:42;;;;;;;10.00;1.48;;;8.20;99.90;;;;;;5052441;28;20079;-62
2024/03/30 00:30:08;;;;;;;8.48;1.40;;;8.20;99.90;;;;;;5052160;28;20083;-62
2024/03/30 00:32:33;;;;;;;7.22;1.45;;;8.20;99.90;;;;;;5052214;28;20064;-66
2024/03/30 00:34:59;;;;;;;8.55;1.77;;;8.20;99.90;;;;;;5051972;28;20044;-66
2024/03/30 00:37:25;;;;;;;10.50;1.63;;;8.20;99.90;;;;;;5051888;28;20073;-66
2024/03/30 00:39:51;;;;;;;6.90;1.40;;;8.20;99.90;;;;;;5052308;28;20080;-66
2024/03/30 00:42:16;;;;;;;8.70;1.60;;;8.20;99.90;;;;;;5052025;28;20044;-66
2024/03/30 00:44:42;;;;;;;7.57;1.38;;;8.20;99.90;;;;;;5051812;28;20086;-65
2024/03/30 00:47:08;;;;;;;10.73;1.80;;;8.20;99.90;;;;;;5051822;28;20379;-66
2024/03/30 00:49:34;;;;;;;5.28;1.15;;;8.20;99.90;;;;;;5051755;28;20072;-65
2024/03/30 00:52:00;;;;;;;9.05;1.60;;;8.20;99.90;;;;;;5051724;28;20064;-66
2024/03/30 00:54:25;;;;;;;7.93;1.30;;;8.20;99.90;;;;;;5052247;28;20048;-66
2024/03/30 00:56:51;;;;;;;7.93;1.23;;;8.20;99.90;;;;;;5050982;28;20036;-66
2024/03/30 00:59:17;;;;;;;8.40;1.55;;;8.20;99.90;;;;;;5051702;28;20064;-66
2024/03/30 01:01:43;;;;;;;8.43;1.33;;;8.10;99.90;;;;;;5051487;28;20037;-67
2024/03/30 01:04:08;;;;;;;6.72;1.40;;;8.10;99.90;;;;;;5051715;28;20413;-67
2024/03/30 01:06:34;;;;;;;10.70;1.85;;;8.10;99.90;;;;;;5051352;28;20072;-67
2024/03/30 01:09:00;;;;;;;8.68;1.95;;;8.10;99.90;;;;;;5051689;28;20041;-66
2024/03/30 01:11:26;;;;;;;5.57;1.55;;;8.00;99.90;;;;;;5051766;28;20124;-66
2024/03/30 01:13:51;;;;;;;6.18;1.70;;;8.00;99.90;;;;;;5051529;28;20072;-68
2024/03/30 01:16:17;;;;;;;10.88;1.98;;;8.00;99.90;;;;;;5051214;28;20056;-66
2024/03/30 01:18:43;;;;;;;7.00;1.83;;;8.00;99.90;;;;;;5051541;28;20041;-67
2024/03/30 01:21:09;;;;;;;8.93;1.70;;;7.90;99.90;;;;;;5051396;28;20041;-66
2024/03/30 01:23:34;;;;;;;8.60;1.48;;;7.90;99.90;;;;;;5051525;28;20033;-66
2024/03/30 01:26:00;;;;;;;8.07;1.52;;;7.90;99.90;;;;;;5051563;28;20098;-65
2024/03/30 01:28:26;;;;;;;6.00;1.73;;;7.90;99.90;;;;;;5051457;28;20044;-65
2024/03/30 01:30:52;;;;;;;5.78;1.15;;;7.90;99.90;;;;;;5051421;28;20509;-66
2024/03/30 01:33:18;;;;;;;6.63;1.50;;;7.80;99.90;;;;;;5051499;28;20036;-66
2024/03/30 01:35:43;;;;;;;6.45;1.70;;;7.70;99.90;;;;;;5051443;28;20040;-65
2024/03/30 01:38:09;;;;;;;10.95;2.08;;;7.70;99.90;;;;;;5051566;28;20068;-66
2024/03/30 01:40:35;;;;;;;8.60;1.50;;;7.70;99.90;;;;;;5051578;28;20455;-66
2024/03/30 01:43:03;;;;;;;9.00;1.85;;;7.70;99.90;;;;;;5051397;28;20094;-67
2024/03/30 01:45:28;;;;;;;9.40;1.48;;;7.60;99.90;;;;;;5051616;28;20052;-65
2024/03/30 01:47:54;;;;;;;5.85;1.63;;;7.70;99.90;;;;;;5050964;28;20049;-65
2024/03/30 01:50:20;;;;;;;8.93;1.25;;;7.60;99.90;;;;;;5051500;28;20041;-67
2024/03/30 01:52:46;;;;;;;10.15;1.75;;;7.60;99.90;;;;;;5068004;28;20037;-67
2024/03/30 01:55:12;;;;;;;7.45;1.30;;;7.60;99.90;;;;;;5051461;28;20544;-67
2024/03/30 01:57:38;;;;;;;5.57;1.20;;;7.60;99.90;;;;;;5051211;28;20071;-67
2024/03/30 02:00:06;;;;;;;6.45;1.77;;;7.60;99.90;;;;;;5051206;28;20037;-67
2024/03/30 02:02:32;;;;;;;10.75;1.70;;;7.60;99.90;;;;;;5051263;28;20045;-67
2024/03/30 02:04:58;;;;;;;6.55;1.38;;;7.60;99.90;;;;;;5051554;28;20095;-67
2024/03/30 02:07:24;;;;;;;7.18;1.70;;;7.60;99.90;;;;;;5051093;28;20458;-68
2024/03/30 02:09:50;;;;;;;7.65;1.38;;;7.60;99.90;;;;;;5055271;28;20080;-67
2024/03/30 02:12:15;;;;;;;6.88;1.80;;;7.60;99.90;;;;;;5055450;28;20045;-67
2024/03/30 02:14:42;;;;;;;6.82;1.73;;;7.60;99.90;;;;;;5054991;28;20041;-67
2024/03/30 02:17:07;;;;;;;7.90;1.38;;;7.60;99.90;;;;;;5054898;28;20053;-67
2024/03/30 02:19:33;;;;;;;6.28;1.60;;;7.60;99.90;;;;;;5054852;28;20037;-67
2024/03/30 02:22:00;;;;;;;5.43;1.40;;;7.60;99.90;;;;;;5054876;28;20041;-66
2024/03/30 02:24:26;;;;;;;10.43;2.13;;;7.60;99.90;;;;;;5054528;28;20074;-66
2024/03/30 02:26:51;;;;;;;10.38;1.75;;;7.50;99.90;;;;;;5054701;28;20037;-66
2024/03/30 02:29:17;;;;;;;7.57;2.00;;;7.60;99.90;;;;;;5071451;28;20048;-67
2024/03/30 02:31:43;;;;;;;7.60;2.08;;;7.60;99.90;;;;;;5054725;28;20041;-67
2024/03/30 02:34:09;;;;;;;11.95;1.88;;;7.60;99.90;;;;;;5055057;28;20039;-68
2024/03/30 02:36:35;;;;;;;5.97;1.80;;;7.60;99.90;;;;;;5054837;28;20037;-68
2024/03/30 02:39:00;;;;;;;7.28;2.00;;;7.60;99.90;;;;;;5054978;28;20033;-67
2024/03/30 02:41:26;;;;;;;10.55;2.65;;;7.60;99.90;;;;;;5054482;28;20355;-66
2024/03/30 02:43:52;;;;;;;7.20;2.17;;;7.70;99.90;;;;;;5054686;28;20037;-67
2024/03/30 02:46:17;;;;;;;9.18;2.80;;;7.70;99.90;;;;;;5054417;28;20091;-67
2024/03/30 02:48:43;;;;;;;11.55;3.20;;;7.70;99.90;;;;;;5054242;28;20075;-67
2024/03/30 02:51:09;;;;;;;10.77;2.50;;;7.70;99.90;;;;;;5054433;28;20040;-68
2024/03/30 02:53:35;;;;;;;8.13;3.10;;;7.70;99.90;;;;;;5054078;28;20128;-67
2024/03/30 02:56:00;;;;;;;7.47;2.38;;;7.70;99.90;;;;;;5054420;28;20041;-67
2024/03/30 02:58:26;;;;;;;10.15;2.67;;;7.70;99.90;;;;;;5053817;28;20044;-67
2024/03/30 03:00:52;;;;;;;10.40;2.88;;;7.70;99.90;;;;;;5053623;28;20497;-67
2024/03/30 03:03:18;;;;;;;11.02;3.10;;;7.70;99.90;;;;;;5053835;28;20099;-67
2024/03/30 03:05:43;;;;;;;11.30;3.25;;;7.60;99.90;;;;;;5054216;28;20045;-67
2024/03/30 03:08:09;;;;;;;9.23;2.47;;;7.60;99.90;;;;;;5054228;28;20056;-68
2024/03/30 03:10:35;;;;;;;11.07;3.00;;;7.50;99.90;;;;;;5054185;28;20449;-67
2024/03/30 03:13:02;;;;;;;8.80;2.30;;;7.50;99.90;;;;;;5053778;28;20037;-68
2024/03/30 03:15:28;;;;;;;10.40;3.00;;;7.40;99.90;;;;;;5054243;28;20048;-68
2024/03/30 03:17:53;;;;;;;6.78;2.60;;;7.40;99.90;;;;;;5053780;28;20072;-68
2024/03/30 03:20:19;;;;;;;5.75;2.00;;;7.40;99.90;;;;;;5069871;28;20127;-67
2024/03/30 03:22:45;;;;;;;7.40;2.30;;;7.40;99.90;;;;;;5054039;28;20040;-67
2024/03/30 03:25:11;;;;;;;11.38;2.42;;;7.30;99.90;;;;;;5054093;28;20438;-67
2024/03/30 03:27:36;;;;;;;8.23;2.63;;;7.20;99.90;;;;;;5053719;28;20037;-68
2024/03/30 03:30:02;;;;;;;7.50;2.28;;;7.20;99.90;;;;;;5053733;28;20079;-67
2024/03/30 03:32:28;;;;;;;9.38;2.25;;;7.10;99.90;;;;;;5053981;28;20055;-68
2024/03/30 03:34:54;;;;;;;10.05;2.30;;;7.10;99.90;;;;;;5053764;28;20037;-67
2024/03/30 03:37:20;;;;;;;11.32;2.35;;;7.10;99.90;;;;;;5053720;28;20178;-67
2024/03/30 03:39:46;;;;;;;9.27;2.10;;;7.00;99.90;;;;;;5053853;28;20045;-67
2024/03/30 03:42:11;;;;;;;5.70;1.65;;;7.00;99.90;;;;;;5053733;28;20045;-67
2024/03/30 03:44:37;;;;;;;10.48;2.33;;;7.00;99.90;;;;;;5053872;28;20048;-67
2024/03/30 03:47:03;;;;;;;5.38;1.90;;;6.90;99.90;;;;;;5053558;28;20128;-68
2024/03/30 03:49:29;;;;;;;7.40;2.03;;;6.90;99.90;;;;;;5053425;28;20067;-67
2024/03/30 03:51:56;;;;;;;6.38;1.70;;;6.90;99.90;;;;;;5053296;28;20589;-67
2024/03/30 03:54:22;;;;;;;5.18;1.60;;;6.80;99.90;;;;;;5053501;28;20040;-67
2024/03/30 03:56:48;;;;;;;5.85;1.90;;;6.80;99.90;;;;;;5053177;28;20090;-67
2024/03/30 03:59:14;;;;;;;4.78;1.38;;;6.70;99.90;;;;;;5053146;28;20029;-68
2024/03/30 04:01:39;;;;;;;8.88;2.25;;;6.70;99.90;;;;;;5053100;28;20041;-67
2024/03/30 04:04:05;;;;;;;7.57;2.00;;;6.70;99.90;;;;;;5053072;28;20052;-67
2024/03/30 04:06:31;;;;;;;6.53;1.92;;;6.60;99.90;;;;;;5052945;28;20033;-67
2024/03/30 04:08:57;;;;;;;4.93;1.77;;;6.60;99.90;;;;;;5053018;28;20116;-67
2024/03/30 04:11:22;;;;;;;8.27;1.70;;;6.60;99.90;;;;;;5052944;28;20397;-67
2024/03/30 04:13:48;;;;;;;5.18;1.67;;;6.60;99.90;;;;;;5053266;28;20049;-63
2024/03/30 04:16:14;;;;;;;6.13;1.52;;;6.60;99.90;;;;;;5052804;28;20057;-63
2024/03/30 04:18:40;;;;;;;7.82;1.63;;;6.60;99.90;;;;;;5069712;28;20043;-63
2024/03/30 04:21:06;;;;;;;8.23;1.70;;;6.60;99.90;;;;;;5053065;28;20374;-63
2024/03/30 04:23:31;;;;;;;7.93;1.73;;;6.50;99.90;;;;;;5052858;28;20044;-63
2024/03/30 04:25:57;;;;;;;7.30;1.70;;;6.50;99.90;;;;;;5052776;28;20509;-63
2024/03/30 04:28:23;;;;;;;6.55;1.80;;;6.50;99.90;;;;;;5052884;28;20037;-63
2024/03/30 04:30:49;;;;;;;5.47;1.55;;;6.50;99.90;;;;;;5052860;28;20132;-63
2024/03/30 04:33:14;;;;;;;5.30;1.55;;;6.50;99.90;;;;;;5069635;28;20076;-63
2024/03/30 04:35:40;;;;;;;5.65;1.73;;;6.50;99.90;;;;;;5052612;28;20044;-63
2024/03/30 04:38:06;;;;;;;5.22;1.50;;;6.50;99.90;;;;;;5052820;28;20041;-63
2024/03/30 04:40:32;;;;;;;4.63;1.70;;;6.50;99.90;;;;;;5052267;28;20037;-63
2024/03/30 04:42:58;;;;;;;6.10;1.60;;;6.50;99.90;;;;;;5052381;28;20091;-63
2024/03/30 04:45:23;;;;;;;6.18;1.85;;;6.50;99.90;;;;;;5052427;28;20037;-63
2024/03/30 04:47:49;;;;;;;7.60;1.58;;;6.50;99.90;;;;;;5052115;28;20465;-63
2024/03/30 04:50:15;;;;;;;5.78;1.58;;;6.50;99.90;;;;;;5052412;28;20493;-62
2024/03/30 04:52:41;;;;;;;3.95;1.30;;;6.50;99.90;;;;;;5052365;28;20154;-62
2024/03/30 04:55:06;;;;;;;4.95;1.45;;;6.40;99.90;;;;;;5052360;28;20041;-62
2024/03/30 04:57:32;;;;;;;3.90;1.55;;;6.50;99.90;;;;;;5052348;28;20386;-63
2024/03/30 04:59:58;;;;;;;7.40;1.83;;;6.40;99.90;;;;;;5052547;28;20071;-62
2024/03/30 05:02:24;;;;;;;4.90;2.10;;;6.50;99.90;;;;;;5052143;28;20110;-63
2024/03/30 05:04:49;;;;;;;6.30;1.70;;;6.50;99.90;;;;;;5052030;28;20111;-63
2024/03/30 05:07:15;;;;;;;8.15;1.58;;;6.40;99.90;;;;;;5051668;28;20519;-63
2024/03/30 05:09:41;;;;;;;3.95;1.40;;;6.40;99.90;;;;;;5051809;28;20124;-62
2024/03/30 05:12:07;;;;;;;6.20;1.88;;;6.40;99.90;;;;;;5051258;28;20072;-63
2024/03/30 05:14:33;;;;;;;5.43;1.88;;;6.40;99.90;;;;;;5051390;28;20166;-63
2024/03/30 05:16:59;;;;;;;6.13;2.13;;;6.40;99.90;;;;;;5051198;28;20144;-63
2024/03/30 05:22:09;;;;;;;4.97;1.52;;;6.50;99.90;;;;;;5068290;28;20540;-63
2024/03/30 05:24:35;;;;;;;8.93;2.70;;;6.40;99.90;;;;;;5051336;28;20041;-62
2024/03/30 05:27:01;;;;;;;7.30;1.45;;;6.40;99.90;;;;;;5051032;28;20037;-62
2024/03/30 05:29:26;;;;;;;5.22;2.53;;;6.40;99.90;;;;;;5051778;28;20037;-62
2024/03/30 05:31:52;;;;;;;10.93;3.28;;;6.40;99.90;;;;;;5051569;28;20048;-63
2024/03/30 05:34:18;;;;;;;8.80;3.05;;;6.40;99.90;;;;;;5051614;28;20037;-63
2024/03/30 05:36:44;;;;;;;5.85;2.00;;;6.40;99.90;;;;;;5051462;28;20458;-62
2024/03/30 05:39:10;;;;;;;9.05;1.90;;;6.40;99.90;;;;;;5051766;28;20041;-62
2024/03/30 05:41:36;;;;;;;7.13;1.70;;;6.40;99.90;;;;;;5051626;28;20120;-63
2024/03/30 05:44:02;;;;;;;4.55;1.38;;;6.40;99.90;;;;;;5054036;28;20120;-62
2024/03/30 05:46:27;;;;;;;5.45;1.48;;;6.40;99.90;;;;;;5055522;28;20060;-62
2024/03/30 05:48:53;;;;;;;3.85;1.40;;;6.40;99.90;;;;;;5055280;28;20076;-62
2024/03/30 05:51:19;;;;;;;3.85;1.60;;;6.40;99.90;;;;;;5055019;28;20033;-62
2024/03/30 05:53:46;;;;;;;8.75;1.70;;;6.40;99.90;;;;;;5054770;28;20045;-62
2024/03/30 05:56:12;;;;;;;6.35;1.70;;;6.40;99.90;;;;;;5054993;28;20139;-63
2024/03/30 05:58:38;;;;;;;5.10;1.52;;;6.40;99.90;;;;;;5055027;28;20048;-63
2024/03/30 06:01:04;;;;;;;6.28;1.80;;;6.50;99.90;;;;;;5055200;28;20048;-63
2024/03/30 06:03:29;;;;;;;5.65;1.45;;;6.50;99.90;;;;;;5054814;28;20048;-63
2024/03/30 06:05:55;;;;;;;6.97;1.60;;;6.50;99.90;;;;;;5054822;28;20048;-63
2024/03/30 06:08:21;;;;;;;9.40;1.85;;;6.60;99.90;;;;;;5054625;28;20052;-63
2024/03/30 06:10:47;;;;;;;7.18;2.08;;;6.60;99.90;;;;;;5054952;28;20037;-63
2024/03/30 06:13:12;;;;;;;5.63;1.60;;;6.60;99.90;;;;;;5054874;28;20478;-63
2024/03/30 06:15:38;;;;;;;5.70;1.83;;;6.60;99.90;;;;;;5054768;28;20466;-62
2024/03/30 06:18:04;;;;;;;6.30;1.60;;;6.60;99.90;;;;;;5054755;28;20048;-63
2024/03/30 06:20:30;;;;;;;5.07;1.70;;;6.60;99.90;;;;;;5054695;28;20083;-62
2024/03/30 06:22:55;;;;;;;7.72;1.88;;;6.60;99.90;;;;;;5054617;28;20048;-62
2024/03/30 06:25:21;;;;;;;7.53;1.55;;;6.60;99.90;;;;;;5054800;28;20547;-62
2024/03/30 06:27:47;;;;;;;6.03;2.35;;;6.60;99.90;;;;;;5055144;28;20045;-62
2024/03/30 06:30:13;;;;;;;7.63;1.73;;;6.60;99.90;;;;;;5054996;28;20082;-63
2024/03/30 06:32:39;;;;;;;7.68;1.63;;;6.70;99.90;;;;;;5054636;28;20033;-62
2024/03/30 06:35:05;;;;;;;6.25;1.85;;;6.70;99.90;;;;;;5054209;28;20173;-62
2024/03/30 06:37:31;;;;;;;6.10;2.00;;;6.70;99.90;;;;;;5054472;28;20108;-61
2024/03/30 06:45:26;;;;;;;8.05;3.00;;;6.70;99.90;;;;;;5054773;28;20438;-62
2024/03/30 06:47:51;;;;;;;8.27;2.20;;;6.60;99.90;;;;;;5054414;28;20036;-62
2024/03/30 06:50:17;;;;;;;4.97;2.13;;;6.60;99.90;;;;;;5054381;28;20052;-63
2024/03/30 06:52:43;;;;;;;7.78;2.28;;;6.60;99.90;;;;;;5054378;28;20037;-62
2024/03/30 06:55:09;;;;;;;8.10;2.65;;;6.70;99.90;;;;;;5052968;28;20094;-63
2024/03/30 06:57:34;;;;;;;8.65;2.70;;;6.80;99.90;;;;;;5054163;28;20036;-63
2024/03/30 07:00:04;;;;;;;6.20;2.17;;;6.80;99.90;;;;;;5053931;28;20072;-62
2024/03/30 07:02:30;;;;;;;7.15;2.70;;;6.90;99.90;;;;;;5054140;28;20041;-62
2024/03/30 07:04:56;;;;;;;6.50;2.20;;;6.90;99.90;;;;;;5054484;28;20051;-62
2024/03/30 07:07:21;;;;;;;6.13;2.70;;;6.90;99.90;;;;;;5053828;28;20494;-62
2024/03/30 07:09:47;;;;;;;5.90;2.40;;;7.00;99.90;;;;;;5054000;28;20106;-64
2024/03/30 07:12:13;;;;;;;6.40;2.70;;;7.00;99.90;;;;;;5054023;28;20069;-63
2024/03/30 07:14:39;;;;;;;7.28;2.33;;;7.10;99.90;;;;;;5053805;28;20041;-63
2024/03/30 07:17:04;;;;;;;9.90;2.72;;;7.20;99.90;;;;;;5053347;28;20128;-62
2024/03/30 07:19:30;;;;;;;8.88;2.60;;;7.30;99.90;;;;;;5053262;28;20072;-62
2024/03/30 07:21:56;;;;;;;7.68;3.13;;;7.30;99.90;;;;;;5053268;28;20044;-61
2024/03/30 07:24:22;;;;;;;8.23;2.97;;;7.40;99.90;;;;;;5053340;28;20049;-62
2024/03/30 07:26:48;;;;;;;5.85;2.75;;;7.40;99.90;;;;;;5052988;28;20047;-62
2024/03/30 07:29:14;;;;;;;5.95;2.53;;;7.50;99.90;;;;;;5053183;28;20040;-62
2024/03/30 07:31:40;;;;;;;9.63;2.80;;;7.50;99.90;;;;;;5052838;28;20040;-62
2024/03/30 07:34:06;;;;;;;6.65;2.70;;;7.40;99.90;;;;;;5053337;28;20061;-63
2024/03/30 07:36:31;;;;;;;7.80;3.30;;;7.50;99.90;;;;;;5052958;28;20037;-62
2024/03/30 07:38:57;;;;;;;8.05;2.75;;;7.60;99.90;;;;;;5052877;28;20045;-63
2024/03/30 07:41:23;;;;;;;6.25;2.78;;;7.70;99.90;;;;;;5053282;28;20485;-68
2024/03/30 07:43:49;;;;;;;9.90;3.30;;;7.80;99.90;;;;;;5053146;28;20119;-67
2024/03/30 07:46:14;;;;;;;9.38;2.70;;;7.80;99.90;;;;;;5052884;28;20549;-63
2024/03/30 07:48:40;;;;;;;6.00;2.88;;;7.90;99.90;;;;;;5052707;28;20120;-63
2024/03/30 07:51:06;;;;;;;8.75;2.72;;;8.00;99.90;;;;;;5052577;28;20055;-62
2024/03/30 07:53:32;;;;;;;12.25;3.00;;;8.10;99.90;;;;;;5052828;28;20072;-63
2024/03/30 07:55:58;;;;;;;7.03;2.78;;;8.20;99.90;;;;;;5052889;28;20033;-62
2024/03/30 07:58:23;;;;;;;8.93;3.13;;;8.20;99.90;;;;;;5053102;28;20052;-66
2024/03/30 08:00:49;;;;;;;8.13;3.10;;;8.30;99.90;;;;;;5052942;28;20131;-67
2024/03/30 08:03:15;;;;;;;8.88;3.20;;;8.40;99.90;;;;;;5053426;28;20037;-63
2024/03/30 08:05:42;;;;;;;9.07;2.70;;;8.40;99.90;;;;;;5052688;28;20492;-62
2024/03/30 08:08:08;;;;;;;7.30;2.80;;;8.50;99.90;;;;;;5052558;28;20040;-63
2024/03/30 08:10:34;;;;;;;8.30;2.60;;;8.50;99.90;;;;;;5053034;28;20040;-62
2024/03/30 08:12:59;;;;;;;7.90;2.65;;;8.60;99.90;;;;;;5052555;28;20065;-62
2024/03/30 08:15:25;;;;;;;6.45;2.50;;;8.60;99.90;;;;;;5052514;28;20374;-62
2024/03/30 08:17:51;;;;;;;7.88;2.15;;;8.60;99.90;;;;;;5052473;28;20498;-63
2024/03/30 08:20:17;;;;;;;8.70;2.28;;;8.60;99.90;;;;;;5052611;28;20075;-63
2024/03/30 08:22:43;;;;;;;7.03;2.13;;;8.70;99.90;;;;;;5052660;28;20041;-62
2024/03/30 08:25:09;;;;;;;8.27;3.00;;;8.70;99.90;;;;;;5052505;28;20056;-63
2024/03/30 08:27:35;;;;;;;8.23;2.22;;;8.80;99.90;;;;;;5052488;28;20034;-63
2024/03/30 08:30:00;;;;;;;12.40;2.50;;;8.90;99.90;;;;;;5052716;28;20509;-62
2024/03/30 08:32:26;;;;;;;9.30;2.10;;;8.90;99.90;;;;;;5052942;28;20562;-63
2024/03/30 08:34:52;;;;;;;5.65;2.08;;;9.00;99.90;;;;;;5052851;28;20116;-62
2024/03/30 08:37:18;;;;;;;7.03;1.77;;;9.10;99.90;;;;;;5052252;28;20079;-63
2024/03/30 08:39:44;;;;;;;8.13;1.52;;;9.20;99.90;;;;;;5052448;28;20076;-63
2024/03/30 08:42:09;;;;;;;11.15;1.77;;;9.20;99.90;;;;;;5051950;28;20049;-62
2024/03/30 08:44:35;;;;;;;10.20;1.85;;;9.30;99.90;;;;;;5052173;28;20048;-63
2024/03/30 08:47:02;;;;;;;11.75;1.60;;;9.40;99.90;;;;;;5051673;28;20452;-62
2024/03/30 08:49:27;;;;;;;8.30;1.70;;;9.40;99.90;;;;;;5051558;28;20029;-62
2024/03/30 08:51:53;;;;;;;7.55;1.73;;;9.50;99.90;;;;;;5052114;28;20355;-62
2024/03/30 08:54:19;;;;;;;8.35;1.70;;;9.60;99.90;;;;;;5052129;28;20095;-62
2024/03/30 08:56:45;;;;;;;10.48;2.05;;;9.60;99.90;;;;;;5052156;28;20063;-62
2024/03/30 08:59:10;;;;;;;14.77;3.05;;;9.60;99.90;;;;;;5052192;28;20405;-62
2024/03/30 09:01:37;;;;;;;13.30;2.08;;;9.70;99.90;;;;;;5052094;28;20039;-62
2024/03/30 09:04:03;;;;;;;11.15;1.95;;;9.70;99.90;;;;;;5052335;28;20041;-62
2024/03/30 09:06:29;;;;;;;8.80;2.38;;;9.80;99.90;;;;;;5051736;28;20087;-66
2024/03/30 09:08:55;;;;;;;8.63;1.58;;;9.80;99.90;;;;;;5051789;28;20119;-67
2024/03/30 09:11:20;;;;;;;13.93;2.35;;;9.80;99.90;;;;;;5052213;28;20167;-66
2024/03/30 09:13:46;;;;;;;11.25;1.65;;;9.90;99.90;;;;;;5052251;28;20115;-67
2024/03/30 09:16:12;;;;;;;9.30;2.08;;;10.00;99.90;;;;;;5051289;28;20131;-67
2024/03/30 09:18:38;;;;;;;11.40;2.05;;;10.00;99.90;;;;;;5053532;28;20521;-67
2024/03/30 09:21:05;;;;;;;8.27;1.45;;;10.10;99.90;;;;;;5055736;28;20079;-67
2024/03/30 09:23:30;;;;;;;7.63;1.50;;;10.10;99.90;;;;;;5055706;28;20057;-67
2024/03/30 09:25:56;;;;;;;11.55;1.90;;;10.20;99.90;;;;;;5055441;28;20440;-66
2024/03/30 09:28:22;;;;;;;9.10;1.80;;;10.30;99.90;;;;;;5055694;28;20083;-67
2024/03/30 09:30:48;;;;;;;13.20;1.55;;;10.40;99.90;;;;;;5055245;28;20052;-66
2024/03/30 09:33:13;;;;;;;11.88;1.95;;;10.50;99.90;;;;;;5055230;28;20116;-67
2024/03/30 09:35:39;;;;;;;10.85;1.98;;;10.50;99.90;;;;;;5055307;28;20044;-67
2024/03/30 09:38:05;;;;;;;10.20;1.25;;;10.60;99.90;;;;;;5055634;28;20045;-66
2024/03/30 09:40:33;;;;;;;8.73;1.58;;;10.70;99.90;;;;;;5055081;28;20079;-66
2024/03/30 09:42:58;;;;;;;11.27;1.67;;;10.80;99.90;;;;;;5055014;28;20037;-67
2024/03/30 09:45:24;;;;;;;10.70;4.63;;;10.90;99.90;;;;;;5054887;28;20521;-67
2024/03/30 09:47:50;;;;;;;6.75;1.45;;;11.00;99.90;;;;;;5055260;28;20045;-66
2024/03/30 09:50:16;;;;;;;6.97;1.27;;;11.10;99.90;;;;;;5055224;28;20037;-67
2024/03/30 09:52:41;;;;;;;4.95;1.48;;;11.20;99.90;;;;;;5055308;28;20041;-63
2024/03/30 09:55:16;;;;;;;11.88;1.55;;;11.30;99.90;;;;;;5055275;28;20098;-62
2024/03/30 09:57:42;;;;;;;9.02;1.75;;;11.40;99.90;;;;;;5038643;28;20387;-62
2024/03/30 10:00:07;;;;;;;7.15;1.50;;;11.50;99.90;;;;;;5055208;28;20048;-63
2024/03/30 10:02:37;;;;;;;10.30;1.48;;;11.60;99.90;;;;;;5055050;28;20041;-63
2024/03/30 10:05:03;;;;;;;10.27;1.90;;;11.80;99.90;;;;;;5054706;28;20544;-63
2024/03/30 10:07:28;;;;;;;9.95;1.60;;;11.90;99.90;;;;;;5054379;28;20033;-63
2024/03/30 10:09:54;;;;;;;9.15;1.45;;;12.00;99.90;;;;;;5054588;28;20048;-63
2024/03/30 10:12:20;;;;;;;8.43;2.00;;;12.20;99.90;;;;;;5054919;28;20037;-63
2024/03/30 10:14:46;;;;;;;7.85;1.38;;;12.20;99.90;;;;;;5054629;28;20474;-63
2024/03/30 10:17:11;;;;;;;4.53;1.25;;;12.40;99.90;;;;;;5054224;28;20060;-63
2024/03/30 10:19:37;;;;;;;6.10;1.27;;;12.50;99.90;;;;;;5053584;28;20071;-63
2024/03/30 10:22:03;;;;;;;8.63;1.45;;;12.60;99.90;;;;;;5072196;28;20068;-63
2024/03/30 10:24:29;;;;;;;4.50;1.27;;;12.70;99.90;;;;;;5074247;28;20039;-63
2024/03/30 10:26:55;;;;;;;8.35;1.48;;;12.80;99.90;;;;;;5074194;28;20445;-63
2024/03/30 10:29:21;;;;;;;5.88;1.45;;;12.90;99.90;;;;;;5074358;28;20044;-63
2024/03/30 10:31:46;;;;;;;6.13;1.23;;;13.00;99.90;;;;;;5051659;28;20068;-63
2024/03/30 10:34:12;;;;;;;6.90;1.23;;;13.10;99.90;;;;;;5037917;28;20045;-63
2024/03/30 10:36:38;;;;;;;6.95;1.23;;;13.00;99.90;;;;;;5054569;28;20041;-66
2024/03/30 10:39:07;;;;;;;5.32;1.50;;;13.10;99.90;;;;;;5054301;28;20041;-66
2024/03/30 10:41:33;;;;;;;7.82;1.38;;;13.10;99.90;;;;;;5053763;28;20128;-66
2024/03/30 10:43:59;;;;;;;7.18;1.30;;;13.10;99.90;;;;;;5054058;28;20049;-67
2024/03/30 10:46:24;;;;;;;5.93;1.10;;;13.20;99.90;;;;;;5053841;28;20071;-67
2024/03/30 10:48:50;;;;;;;7.57;1.58;;;13.30;99.90;;;;;;5053655;28;20040;-66
2024/03/30 10:51:16;;;;;;;5.15;1.02;;;13.40;99.90;;;;;;5054259;28;20056;-66
2024/03/30 10:53:42;;;;;;;5.68;1.10;;;13.40;99.90;;;;;;5053844;28;20048;-67
2024/03/30 10:56:07;;;;;;;6.18;1.60;;;13.40;99.90;;;;;;5053796;28;20033;-68
2024/03/30 10:58:33;;;;;;;6.13;1.10;;;13.30;99.90;;;;;;5053981;28;20052;-66
2024/03/30 11:00:59;;;;;;;8.88;1.40;;;13.30;99.90;;;;;;5053874;28;20045;-68
2024/03/30 11:03:25;;;;;;;6.60;1.42;;;13.30;99.90;;;;;;5053365;28;20040;-68
2024/03/30 11:05:51;;;;;;;5.32;1.08;;;13.20;99.90;;;;;;5053740;28;20037;-66
2024/03/30 11:08:16;;;;;;;5.90;1.15;;;13.20;99.90;;;;;;5053194;28;20033;-67
2024/03/30 11:10:42;;;;;;;6.85;1.40;;;13.10;99.90;;;;;;5036415;28;20060;-66
2024/03/30 11:13:08;;;;;;;6.10;1.40;;;13.10;99.90;;;;;;5053444;28;20040;-66
2024/03/30 11:15:34;;;;;;;7.45;1.20;;;13.10;99.90;;;;;;5053532;28;20413;-67
2024/03/30 11:18:00;;;;;;;5.95;1.50;;;13.20;99.90;;;;;;5053327;28;20068;-66
2024/03/30 11:20:26;;;;;;;4.82;1.02;;;13.20;99.90;;;;;;5048331;28;20033;-68
2024/03/30 11:22:52;;;;;;;5.65;1.30;;;13.30;99.90;;;;;;5049219;28;20073;-63
2024/03/30 11:25:18;;;;;;;6.13;1.40;;;13.30;99.90;;;;;;5033232;28;20073;-63
2024/03/30 11:27:44;;;;;;;7.90;1.75;;;13.40;99.90;;;;;;5017020;28;20045;-66
2024/03/30 11:30:09;;;;;;;6.90;1.75;;;13.40;99.90;;;;;;5049614;28;20056;-67
2024/03/30 11:32:35;;;;;;;6.90;1.45;;;13.40;99.90;;;;;;5053466;28;20037;-66
2024/03/30 11:35:01;;;;;;;8.55;2.08;;;13.40;99.90;;;;;;5053532;28;20033;-66
2024/03/30 11:37:27;;;;;;;4.22;1.10;;;13.50;99.90;;;;;;5053567;28;20041;-66
2024/03/30 11:39:53;;;;;;;9.18;2.13;;;13.60;99.90;;;;;;5053493;28;20037;-64
2024/03/30 11:42:19;;;;;;;7.30;1.80;;;13.60;99.90;;;;;;5052745;28;20032;-63
2024/03/30 11:44:44;;;;;;;7.28;1.23;;;13.60;99.90;;;;;;5053112;28;20052;-64
2024/03/30 11:47:12;;;;;;;4.68;1.15;;;13.60;99.90;;;;;;5052827;28;20052;-64
2024/03/30 11:49:38;;;;;;;5.85;1.23;;;13.70;99.90;;;;;;5052783;28;20059;-64
2024/03/30 11:52:03;;;;;;;3.15;0.77;;;13.70;99.90;;;;;;5052919;28;20406;-64
2024/03/30 11:54:29;;;;;;;7.00;1.35;;;13.70;99.90;;;;;;5052883;28;20059;-64
2024/03/30 11:56:55;;;;;;;4.15;1.30;;;13.70;99.90;;;;;;5052920;28;20065;-63
2024/03/30 11:59:21;;;;;;;4.57;1.27;;;13.80;99.90;;;;;;5053206;28;20098;-64
2024/03/30 12:01:46;;;;;;;4.88;1.20;;;13.80;99.90;;;;;;5052927;28;20041;-64
2024/03/30 12:04:12;;;;;;;3.88;0.90;;;13.90;99.90;;;;;;5036196;28;20060;-65
2024/03/30 12:06:38;;;;;;;7.20;1.52;;;13.90;99.90;;;;;;5053033;28;20033;-65
2024/03/30 12:09:04;;;;;;;5.50;1.15;;;13.90;99.90;;;;;;5052829;28;20037;-64
2024/03/30 12:11:30;;;;;;;4.22;1.13;;;14.00;99.90;;;;;;5052454;28;20514;-64
2024/03/30 12:13:55;;;;;;;6.75;1.45;;;14.00;99.90;;;;;;5052569;28;20548;-66
2024/03/30 12:16:21;;;;;;;4.50;1.02;;;14.00;99.90;;;;;;5052151;28;20075;-66
2024/03/30 12:18:47;;;;;;;5.07;1.00;;;13.90;99.90;;;;;;5035754;28;20040;-67
2024/03/30 12:21:13;;;;;;;9.18;1.08;;;14.00;99.90;;;;;;5036056;28;20489;-67
2024/03/30 12:23:38;;;;;;;3.22;1.10;;;13.90;99.90;;;;;;5052724;28;20068;-67
2024/03/30 12:26:04;;;;;;;4.55;1.23;;;13.90;99.90;;;;;;5052297;28;20116;-65
2024/03/30 12:28:30;;;;;;;7.38;1.20;;;13.90;99.90;;;;;;5052757;28;20091;-67
2024/03/30 12:30:56;;;;;;;4.40;1.40;;;14.00;99.90;;;;;;5052525;28;20041;-67
2024/03/30 12:33:21;;;;;;;5.85;1.30;;;14.00;99.90;;;;;;5036026;28;20037;-68
2024/03/30 12:35:47;;;;;;;6.82;1.80;;;14.00;99.90;;;;;;5052418;28;20401;-68
2024/03/30 12:38:13;;;;;;;7.88;1.63;;;14.10;99.90;;;;;;5052791;28;20095;-68
2024/03/30 12:40:39;;;;;;;6.35;1.30;;;14.20;99.90;;;;;;5052328;28;20045;-68
2024/03/30 12:43:05;;;;;;;5.93;1.33;;;14.30;99.90;;;;;;5051619;28;20053;-67
2024/03/30 12:45:30;;;;;;;5.25;1.10;;;14.30;99.90;;;;;;5051771;28;20052;-68
2024/03/30 12:47:56;;;;;;;3.55;0.77;;;14.30;99.90;;;;;;5051673;28;20037;-68
2024/03/30 12:50:22;;;;;;;6.93;1.33;;;14.30;99.90;;;;;;5051672;28;20170;-67
2024/03/30 12:52:48;;;;;;;8.52;1.10;;;14.40;99.90;;;;;;5051804;28;20032;-66